Time;durP1;ratioP1;P1;durP2;ratioP2;P2;SDS_P1;SDS_P2;PMS_P1;PMS_P2;Temp;Humidity;BMP_temperature;BMP_pressure;BME280_temperature;BME280_humidity;BME280_pressure;Samples;Min_cycle;Max_cycle;Signal;HPM_P1;HPM_P2
2021/05/21 00:02:07;;;;;;;4.50;4.10;;;10.20;1.00;;;;;;5048215;28;20181;-60
2021/05/21 00:04:33;;;;;;;4.70;4.27;;;10.10;1.00;;;;;;5051041;28;20190;-59
2021/05/21 00:06:58;;;;;;;4.60;4.20;;;10.10;1.00;;;;;;5048999;28;20559;-59
2021/05/21 00:09:24;;;;;;;5.57;5.07;;;10.10;1.00;;;;;;5051258;28;20221;-60
2021/05/21 00:11:49;;;;;;;4.73;4.33;;;10.10;1.00;;;;;;5049660;28;20205;-59
2021/05/21 00:14:15;;;;;;;6.10;5.60;;;10.30;1.00;;;;;;5050532;28;20221;-60
2021/05/21 00:16:41;;;;;;;5.63;5.13;;;10.20;1.00;;;;;;5049555;28;20174;-59
2021/05/21 00:19:06;;;;;;;6.00;5.50;;;10.20;1.00;;;;;;5050682;28;20196;-59
2021/05/21 00:21:32;;;;;;;5.63;5.13;;;10.20;1.00;;;;;;5047827;28;20212;-55
2021/05/21 00:23:58;;;;;;;5.80;5.30;;;10.30;1.00;;;;;;5051111;28;20181;-60
2021/05/21 00:26:23;;;;;;;5.30;4.80;;;10.20;1.00;;;;;;5049647;28;20960;-60
2021/05/21 00:28:49;;;;;;;5.70;5.30;;;10.20;1.00;;;;;;5049975;28;20210;-59
2021/05/21 00:31:14;;;;;;;5.70;5.20;;;10.20;1.00;;;;;;5049957;28;20186;-59
2021/05/21 00:33:40;;;;;;;6.00;5.50;;;10.20;1.00;;;;;;5050519;28;20188;-59
2021/05/21 00:36:06;;;;;;;6.03;5.53;;;10.30;1.00;;;;;;5050056;28;20240;-59
2021/05/21 00:38:31;;;;;;;5.53;4.90;;;10.30;1.00;;;;;;5062928;28;20181;-60
2021/05/21 00:41:00;;;;;;;5.53;5.03;;;10.20;1.00;;;;;;5049818;28;20177;-60
2021/05/21 00:43:25;;;;;;;5.70;5.20;;;10.20;1.00;;;;;;5049145;28;20209;-59
2021/05/21 00:45:51;;;;;;;6.50;5.90;;;10.30;1.00;;;;;;5048580;28;20444;-60
2021/05/21 00:48:16;;;;;;;7.40;4.83;;;10.30;1.00;;;;;;5049641;28;20195;-60
2021/05/21 00:50:42;;;;;;;5.80;5.27;;;10.20;1.00;;;;;;5051549;28;20181;-59
2021/05/21 00:53:10;;;;;;;5.60;5.10;;;10.20;1.00;;;;;;5054102;28;20217;-59
2021/05/21 00:55:36;;;;;;;5.50;5.00;;;10.20;1.00;;;;;;5049705;28;20293;-60
2021/05/21 00:58:02;;;;;;;5.77;5.27;;;10.30;1.00;;;;;;5041581;28;20444;-59
2021/05/21 01:00:29;;;;;;;6.37;5.40;;;10.30;1.00;;;;;;5049393;28;20833;-59
2021/05/21 01:02:54;;;;;;;5.33;4.80;;;10.20;1.00;;;;;;5049283;28;20424;-53
2021/05/21 01:05:20;;;;;;;5.30;4.80;;;10.30;1.00;;;;;;5049114;28;20514;-60
2021/05/21 01:07:45;;;;;;;5.30;4.80;;;10.20;1.00;;;;;;5049897;28;20193;-59
2021/05/21 01:10:11;;;;;;;5.43;4.93;;;10.20;1.00;;;;;;5048111;28;20832;-60
2021/05/21 01:12:37;;;;;;;4.70;4.30;;;10.30;1.00;;;;;;5048298;28;20182;-60
2021/05/21 01:15:04;;;;;;;5.63;5.13;;;10.20;1.00;;;;;;5049200;28;20540;-60
2021/05/21 01:17:32;;;;;;;4.80;4.40;;;10.20;1.00;;;;;;5048268;28;20356;-59
2021/05/21 01:19:58;;;;;;;5.70;5.20;;;10.30;1.00;;;;;;5049529;28;20881;-59
2021/05/21 01:22:23;;;;;;;5.53;4.87;;;10.20;1.00;;;;;;5048213;28;20424;-59
2021/05/21 01:24:49;;;;;;;5.37;4.60;;;10.20;1.00;;;;;;5049223;28;20216;-59
2021/05/21 01:27:15;;;;;;;5.60;4.80;;;10.20;1.00;;;;;;5047855;28;20192;-60
2021/05/21 01:29:40;;;;;;;4.97;4.47;;;10.20;1.00;;;;;;5055944;28;20493;-60
2021/05/21 01:32:11;;;;;;;4.90;4.50;;;10.20;1.00;;;;;;5048432;28;20443;-60
2021/05/21 01:34:38;;;;;;;5.40;4.90;;;10.30;1.00;;;;;;5048984;28;20364;-60
2021/05/21 01:37:19;;;;;;;5.50;4.57;;;10.40;1.00;;;;;;5049811;28;20937;-60
2021/05/21 01:39:45;;;;;;;5.50;4.97;;;10.30;1.00;;;;;;5047212;28;20460;-59
2021/05/21 01:42:14;;;;;;;7.83;4.80;;;10.30;1.00;;;;;;5049487;28;21214;-60
2021/05/21 01:44:41;;;;;;;5.30;4.80;;;10.30;1.00;;;;;;5047161;28;20230;-60
2021/05/21 01:47:09;;;;;;;5.83;5.33;;;10.30;1.00;;;;;;5049497;28;20443;-60
2021/05/21 01:49:35;;;;;;;5.07;4.67;;;10.30;1.00;;;;;;5048858;28;20448;-60
2021/05/21 01:52:01;;;;;;;5.20;4.70;;;10.40;1.00;;;;;;5053492;28;20436;-60
2021/05/21 01:54:28;;;;;;;6.97;4.20;;;10.30;1.00;;;;;;5047573;28;20301;-60
2021/05/21 01:56:55;;;;;;;4.80;4.40;;;10.30;1.00;;;;;;5048497;28;20644;-60
2021/05/21 01:59:21;;;;;;;5.47;4.97;;;10.30;1.00;;;;;;5047522;28;20466;-60
2021/05/21 02:01:47;;;;;;;4.57;4.20;;;10.30;1.00;;;;;;5048312;28;20944;-60
2021/05/21 02:04:14;;;;;;;4.93;4.53;;;10.30;1.00;;;;;;5049265;28;20420;-60
2021/05/21 02:06:39;;;;;;;5.57;4.87;;;10.40;1.00;;;;;;5048522;28;20594;-60
2021/05/21 02:09:08;;;;;;;5.83;4.87;;;10.40;1.00;;;;;;5047551;28;20532;-60
2021/05/21 02:11:35;;;;;;;5.50;5.00;;;10.40;1.00;;;;;;5047741;28;20205;-60
2021/05/21 02:14:01;;;;;;;5.63;4.83;;;10.40;1.00;;;;;;5046313;28;20448;-60
2021/05/21 02:16:26;;;;;;;7.10;5.10;;;10.30;1.00;;;;;;5048768;28;20821;-60
2021/05/21 02:18:52;;;;;;;4.90;4.50;;;10.30;1.00;;;;;;5047290;28;20482;-60
2021/05/21 02:21:18;;;;;;;4.40;4.00;;;10.30;1.00;;;;;;5049108;28;20285;-60
2021/05/21 02:23:43;;;;;;;4.87;4.37;;;10.40;1.00;;;;;;5047073;28;20655;-60
2021/05/21 02:26:09;;;;;;;4.97;4.57;;;10.40;1.00;;;;;;5047428;28;20188;-60
2021/05/21 02:28:34;;;;;;;4.60;4.20;;;10.40;1.00;;;;;;5046112;28;20265;-55
2021/05/21 02:31:00;;;;;;;4.40;4.00;;;10.40;1.00;;;;;;5048934;28;20674;-55
2021/05/21 02:33:27;;;;;;;5.20;4.80;;;10.50;1.00;;;;;;5047850;28;20186;-59
2021/05/21 02:35:53;;;;;;;5.10;4.70;;;10.50;1.00;;;;;;5048706;28;20288;-60
2021/05/21 02:38:19;;;;;;;4.90;4.50;;;10.40;1.00;;;;;;5046576;28;20905;-60
2021/05/21 02:40:45;;;;;;;5.00;4.60;;;10.40;1.00;;;;;;5048656;28;20412;-60
2021/05/21 02:43:12;;;;;;;5.30;4.83;;;10.40;1.00;;;;;;5047638;28;20429;-60
2021/05/21 02:45:37;;;;;;;5.53;4.67;;;10.30;1.00;;;;;;5047902;28;20479;-60
2021/05/21 02:48:03;;;;;;;5.70;5.20;;;10.30;1.00;;;;;;5049024;28;20440;-60
2021/05/21 02:50:29;;;;;;;5.20;4.80;;;10.20;1.00;;;;;;5050179;28;20193;-59
2021/05/21 02:52:54;;;;;;;5.73;5.23;;;10.20;1.00;;;;;;5041983;28;20432;-58
2021/05/21 02:55:20;;;;;;;5.43;4.93;;;10.10;1.00;;;;;;5049941;28;20209;-59
2021/05/21 02:57:45;;;;;;;5.60;5.10;;;10.00;1.00;;;;;;5049043;28;20860;-59
2021/05/21 03:00:11;;;;;;;5.77;5.27;;;9.90;1.00;;;;;;5049895;28;20544;-59
2021/05/21 03:02:38;;;;;;;6.70;6.00;;;9.90;1.00;;;;;;5048546;28;20182;-59
2021/05/21 03:05:04;;;;;;;5.43;5.03;;;9.90;1.00;;;;;;5048959;28;20901;-60
2021/05/21 03:07:29;;;;;;;5.87;5.33;;;9.80;1.00;;;;;;5051170;28;20506;-59
2021/05/21 03:09:55;;;;;;;5.83;5.30;;;9.80;1.00;;;;;;5053146;28;20902;-60
2021/05/21 03:12:21;;;;;;;5.60;5.10;;;9.70;1.00;;;;;;5053846;28;20182;-60
2021/05/21 03:14:46;;;;;;;6.27;5.77;;;9.60;1.00;;;;;;5052866;28;20294;-59
2021/05/21 03:17:12;;;;;;;6.77;6.03;;;9.60;1.00;;;;;;5052607;28;20182;-60
2021/05/21 03:19:38;;;;;;;6.20;5.70;;;9.60;1.00;;;;;;5052324;28;20186;-60
2021/05/21 03:22:04;;;;;;;6.20;5.60;;;9.60;1.10;;;;;;5052990;28;20292;-59
2021/05/21 03:24:29;;;;;;;6.30;5.70;;;9.60;4.00;;;;;;5052729;28;20446;-60
2021/05/21 03:26:55;;;;;;;8.50;5.70;;;9.60;4.30;;;;;;5053735;28;20269;-59
2021/05/21 03:29:20;;;;;;;7.07;6.37;;;9.60;4.80;;;;;;5049943;28;20208;-59
2021/05/21 03:31:46;;;;;;;6.87;5.67;;;9.60;7.20;;;;;;5046403;28;20192;-60
2021/05/21 03:34:12;;;;;;;6.97;6.27;;;9.60;7.70;;;;;;5051806;28;20194;-60
2021/05/21 03:36:38;;;;;;;6.23;5.73;;;9.60;10.70;;;;;;5053300;28;20420;-59
2021/05/21 03:39:06;;;;;;;7.00;6.40;;;9.70;11.20;;;;;;5052593;28;20194;-59
2021/05/21 03:41:32;;;;;;;6.43;5.70;;;9.70;10.30;;;;;;5048324;28;20769;-59
2021/05/21 03:43:59;;;;;;;6.20;5.70;;;9.80;9.60;;;;;;5052958;28;20883;-58
2021/05/21 03:46:25;;;;;;;6.73;6.10;;;9.80;8.40;;;;;;5050792;28;20995;-59
2021/05/21 03:48:50;;;;;;;6.60;6.00;;;9.80;6.00;;;;;;5051437;28;20423;-57
2021/05/21 03:51:16;;;;;;;6.07;5.57;;;9.90;10.00;;;;;;5056527;28;20220;-58
2021/05/21 03:53:42;;;;;;;6.00;5.50;;;10.00;3.90;;;;;;5037966;28;20577;-59
2021/05/21 03:56:08;;;;;;;6.10;5.47;;;10.10;2.20;;;;;;5050434;28;20550;-59
2021/05/21 03:58:33;;;;;;;6.37;5.77;;;10.20;1.40;;;;;;5050461;28;20468;-59
2021/05/21 04:01:00;;;;;;;5.83;5.23;;;10.40;1.00;;;;;;5050935;28;20463;-54
2021/05/21 04:03:26;;;;;;;6.43;5.83;;;10.50;1.00;;;;;;5050945;28;20182;-59
2021/05/21 04:05:52;;;;;;;5.47;4.93;;;10.60;1.00;;;;;;5053468;28;20437;-59
2021/05/21 04:08:18;;;;;;;6.03;5.00;;;10.70;1.00;;;;;;5050983;28;20453;-59
2021/05/21 04:10:43;;;;;;;5.77;5.37;;;10.70;1.00;;;;;;5050116;28;20189;-58
2021/05/21 04:13:09;;;;;;;6.40;5.90;;;10.80;1.00;;;;;;5051135;28;20222;-59
2021/05/21 04:15:35;;;;;;;5.50;5.00;;;10.90;1.00;;;;;;5050831;28;20667;-60
2021/05/21 04:18:01;;;;;;;6.17;5.57;;;10.90;1.00;;;;;;5050823;28;20280;-59
2021/05/21 04:20:26;;;;;;;6.40;5.80;;;11.00;1.00;;;;;;5041570;28;20190;-58
2021/05/21 04:22:52;;;;;;;5.60;5.20;;;11.10;1.00;;;;;;5041329;28;21066;-58
2021/05/21 04:25:17;;;;;;;5.87;5.33;;;11.30;1.00;;;;;;5040415;28;20228;-57
2021/05/21 04:27:43;;;;;;;5.80;5.30;;;11.40;1.00;;;;;;5040388;28;20221;-58
2021/05/21 04:30:09;;;;;;;6.20;5.70;;;11.50;1.00;;;;;;5040427;28;20185;-58
2021/05/21 04:32:34;;;;;;;6.10;5.60;;;11.50;1.00;;;;;;5041228;28;20182;-57
2021/05/21 04:35:00;;;;;;;10.20;6.40;;;11.60;1.00;;;;;;5039972;28;21020;-57
2021/05/21 04:37:26;;;;;;;6.43;5.83;;;11.70;1.00;;;;;;5041402;28;20966;-59
2021/05/21 04:39:52;;;;;;;7.03;5.30;;;11.80;1.00;;;;;;5047647;28;20201;-59
2021/05/21 04:42:17;;;;;;;5.80;5.20;;;11.90;1.00;;;;;;5048836;28;20993;-59
2021/05/21 04:44:43;;;;;;;5.33;4.83;;;12.10;1.00;;;;;;5050054;28;20275;-56
2021/05/21 04:47:08;;;;;;;5.10;4.60;;;12.20;1.00;;;;;;5049430;28;20185;-58
2021/05/21 04:49:37;;;;;;;5.00;4.60;;;12.30;1.00;;;;;;5049198;28;20182;-56
2021/05/21 04:52:05;;;;;;;6.20;5.03;;;12.40;1.00;;;;;;5062823;28;20188;-59
2021/05/21 04:54:32;;;;;;;5.70;4.70;;;12.50;99.90;;;;;;5050422;28;20479;-59
2021/05/21 04:56:57;;;;;;;5.00;4.50;;;12.60;99.90;;;;;;5048886;28;20490;-59
2021/05/21 04:59:23;;;;;;;5.50;4.67;;;12.70;99.90;;;;;;5049490;28;20903;-59
2021/05/21 05:01:49;;;;;;;5.17;4.77;;;12.70;99.90;;;;;;5049294;28;20192;-59
2021/05/21 05:04:15;;;;;;;4.83;4.43;;;12.80;99.90;;;;;;5050620;28;20194;-59
2021/05/21 05:06:41;;;;;;;4.70;4.33;;;12.90;99.90;;;;;;5050217;28;20422;-59
2021/05/21 05:09:07;;;;;;;4.60;4.20;;;12.90;99.70;;;;;;5049380;28;20182;-59
2021/05/21 05:11:33;;;;;;;4.57;4.17;;;13.10;54.60;;;;;;5050127;28;20927;-59
2021/05/21 05:13:58;;;;;;;4.30;3.90;;;13.20;1.00;;;;;;5049257;28;20192;-60
2021/05/21 05:16:24;;;;;;;4.63;4.20;;;13.20;1.00;;;;;;5050187;28;20595;-60
2021/05/21 05:18:49;;;;;;;4.60;4.20;;;13.30;1.00;;;;;;5049811;28;20297;-59
2021/05/21 05:21:15;;;;;;;4.57;3.90;;;13.30;1.00;;;;;;5049872;28;20179;-55
2021/05/21 05:23:42;;;;;;;4.43;4.03;;;13.40;1.00;;;;;;5048901;28;20666;-59
2021/05/21 05:26:11;;;;;;;6.70;4.87;;;13.50;99.90;;;;;;5050132;28;21067;-58
2021/05/21 05:28:37;;;;;;;4.93;4.40;;;13.50;99.90;;;;;;5048961;28;20476;-59
2021/05/21 05:31:03;;;;;;;4.33;4.03;;;13.60;99.90;;;;;;5049620;28;20448;-59
2021/05/21 05:33:28;;;;;;;4.30;3.90;;;13.60;99.90;;;;;;5048744;28;20549;-59
2021/05/21 05:35:54;;;;;;;5.97;5.47;;;13.80;98.20;;;;;;5049737;28;20258;-53
2021/05/21 05:38:19;;;;;;;4.90;4.50;;;13.80;1.00;;;;;;5048296;28;20657;-59
2021/05/21 05:40:45;;;;;;;4.30;4.00;;;13.90;1.00;;;;;;5049470;28;20634;-59
2021/05/21 05:43:10;;;;;;;5.77;4.43;;;14.00;1.00;;;;;;5049301;28;20187;-59
2021/05/21 05:45:36;;;;;;;4.20;3.67;;;14.10;1.00;;;;;;5049377;28;20821;-58
2021/05/21 05:48:02;;;;;;;5.50;5.00;;;14.40;99.90;;;;;;5048538;28;20185;-59
2021/05/21 05:50:27;;;;;;;4.13;3.83;;;14.40;99.90;;;;;;5049126;28;20189;-59
2021/05/21 05:52:54;;;;;;;4.27;3.93;;;14.50;99.90;;;;;;5060837;28;20470;-59
2021/05/21 05:55:19;;;;;;;4.40;4.10;;;14.60;1.00;;;;;;5048701;28;20212;-59
2021/05/21 05:57:45;;;;;;;4.20;3.90;;;14.80;99.90;;;;;;5048052;28;20934;-60
2021/05/21 06:00:11;;;;;;;4.83;4.43;;;15.00;1.00;;;;;;5048812;28;20186;-59
2021/05/21 06:02:37;;;;;;;4.83;3.67;;;15.00;21.10;;;;;;5048586;28;20170;-59
2021/05/21 06:05:03;;;;;;;4.27;3.87;;;15.10;99.90;;;;;;5048033;28;20457;-58
2021/05/21 06:07:29;;;;;;;5.03;4.10;;;15.20;1.00;;;;;;5051139;28;20178;-58
2021/05/21 06:09:55;;;;;;;4.47;4.07;;;15.30;1.00;;;;;;5043570;28;20916;-58
2021/05/21 06:12:20;;;;;;;4.37;3.97;;;15.50;99.90;;;;;;5044683;28;20472;-59
2021/05/21 06:14:46;;;;;;;3.67;3.47;;;15.60;99.90;;;;;;5048434;28;20280;-59
2021/05/21 06:17:16;;;;;;;9.77;8.97;;;15.60;99.90;;;;;;5048697;28;20211;-59
2021/05/21 06:19:42;;;;;;;4.60;4.20;;;15.80;99.90;;;;;;5048201;28;20173;-59
2021/05/21 06:22:07;;;;;;;4.10;3.80;;;15.90;1.00;;;;;;5046612;28;20441;-59
2021/05/21 06:24:33;;;;;;;3.97;3.67;;;16.00;99.90;;;;;;5048139;28;20184;-59
2021/05/21 06:29:43;;;;;;;3.73;3.43;;;16.20;1.00;;;;;;5045759;28;20234;-59
2021/05/21 06:32:08;;;;;;;4.93;3.40;;;16.30;1.00;;;;;;5048467;28;20411;-59
2021/05/21 06:34:34;;;;;;;3.53;3.23;;;16.40;1.00;;;;;;5047751;28;20206;-59
2021/05/21 06:36:59;;;;;;;3.43;3.13;;;16.50;99.90;;;;;;5051235;28;20227;-62
2021/05/21 06:39:25;;;;;;;3.40;3.10;;;16.70;99.90;;;;;;5049778;28;20915;-62
2021/05/21 06:41:50;;;;;;;3.37;3.07;;;16.60;99.90;;;;;;5044054;28;20181;-58
2021/05/21 06:44:16;;;;;;;3.40;3.20;;;16.60;99.90;;;;;;5047640;28;20237;-58
2021/05/21 06:46:43;;;;;;;3.57;3.37;;;16.70;99.90;;;;;;5048874;28;20182;-63
2021/05/21 06:49:14;;;;;;;3.70;3.40;;;17.00;99.90;;;;;;5048140;28;20723;-62
2021/05/21 06:51:40;;;;;;;2.90;2.70;;;17.30;1.00;;;;;;5047913;28;20427;-60
2021/05/21 06:54:05;;;;;;;4.73;3.13;;;17.40;1.00;;;;;;5048027;28;20408;-59
2021/05/21 06:56:31;;;;;;;3.17;2.97;;;17.40;1.00;;;;;;5042026;28;20179;-59
2021/05/21 06:58:57;;;;;;;4.30;2.67;;;17.50;1.00;;;;;;5043994;28;20650;-59
2021/05/21 07:01:22;;;;;;;2.53;2.43;;;17.40;1.00;;;;;;5047792;28;20181;-59
2021/05/21 07:03:48;;;;;;;3.10;2.80;;;17.50;1.00;;;;;;5047555;28;20259;-61
2021/05/21 07:06:13;;;;;;;2.33;2.23;;;17.40;1.00;;;;;;5047999;28;20247;-61
2021/05/21 07:08:38;;;;;;;3.17;2.87;;;17.50;1.00;;;;;;5047696;28;20718;-61
2021/05/21 07:11:04;;;;;;;3.23;3.03;;;17.60;1.00;;;;;;5048112;28;20206;-61
2021/05/21 07:13:30;;;;;;;3.20;3.00;;;17.50;1.00;;;;;;5047540;28;20848;-61
2021/05/21 07:15:56;;;;;;;3.20;2.97;;;17.40;1.00;;;;;;5047702;28;20601;-59
2021/05/21 07:18:24;;;;;;;3.00;2.80;;;17.60;1.00;;;;;;5047669;28;20425;-58
2021/05/21 07:20:50;;;;;;;3.10;2.90;;;17.50;1.00;;;;;;5047644;28;20412;-58
2021/05/21 07:23:15;;;;;;;3.37;3.17;;;17.60;1.00;;;;;;5047434;28;20502;-59
2021/05/21 07:25:41;;;;;;;3.40;3.00;;;17.70;1.00;;;;;;5046397;28;20186;-59
2021/05/21 07:28:07;;;;;;;2.90;2.70;;;17.80;1.00;;;;;;5047907;28;20416;-59
2021/05/21 07:30:32;;;;;;;3.37;2.93;;;17.80;1.00;;;;;;5047879;28;20174;-59
2021/05/21 07:32:58;;;;;;;3.07;2.87;;;18.20;1.00;;;;;;5047489;28;20193;-61
2021/05/21 07:35:24;;;;;;;2.93;2.73;;;18.50;1.00;;;;;;5045323;28;20245;-61
2021/05/21 07:37:50;;;;;;;3.30;3.10;;;18.40;1.00;;;;;;5047674;28;20806;-59
2021/05/21 07:40:17;;;;;;;3.17;2.97;;;18.60;1.00;;;;;;5047468;28;20186;-61
2021/05/21 07:42:43;;;;;;;3.23;3.03;;;18.70;1.00;;;;;;5042037;28;20419;-58
2021/05/21 07:45:10;;;;;;;5.00;3.10;;;18.70;1.00;;;;;;5041914;28;20460;-57
2021/05/21 07:47:35;;;;;;;3.37;3.13;;;18.80;1.00;;;;;;5042826;28;20189;-57
2021/05/21 07:50:01;;;;;;;2.50;2.40;;;18.70;99.90;;;;;;5039595;28;20848;-61
2021/05/21 07:52:27;;;;;;;2.50;2.40;;;18.70;99.90;;;;;;5036519;28;20193;-60
2021/05/21 07:54:52;;;;;;;2.20;2.10;;;18.60;99.90;;;;;;5050450;28;20213;-64
2021/05/21 07:57:18;;;;;;;2.97;2.77;;;18.40;99.90;;;;;;5049763;28;20710;-60
2021/05/21 07:59:43;;;;;;;2.97;2.87;;;18.20;99.90;;;;;;5050336;28;20200;-61
2021/05/21 08:02:09;;;;;;;2.50;2.40;;;18.30;99.90;;;;;;5050442;28;20692;-61
2021/05/21 08:04:34;;;;;;;3.30;3.10;;;18.30;99.90;;;;;;5050181;28;20189;-66
2021/05/21 08:07:00;;;;;;;3.33;3.13;;;18.30;99.90;;;;;;5045199;28;20283;-62
2021/05/21 08:09:26;;;;;;;3.20;2.97;;;18.40;99.90;;;;;;5045671;28;20192;-59
2021/05/21 08:11:52;;;;;;;3.10;2.90;;;18.60;99.90;;;;;;5046663;28;20206;-61
2021/05/21 08:14:17;;;;;;;2.93;2.73;;;18.90;99.90;;;;;;5041227;28;20459;-58
2021/05/21 08:16:43;;;;;;;3.03;2.83;;;19.10;99.90;;;;;;5049902;28;20553;-59
2021/05/21 08:19:09;;;;;;;2.80;2.60;;;19.20;99.90;;;;;;5050437;28;20182;-61
2021/05/21 08:21:35;;;;;;;2.53;2.43;;;19.40;99.90;;;;;;5050324;28;20210;-54
2021/05/21 08:24:01;;;;;;;3.13;2.80;;;19.30;99.90;;;;;;5050212;28;20187;-59
2021/05/21 08:26:27;;;;;;;3.90;2.90;;;19.30;99.90;;;;;;5049872;28;20420;-58
2021/05/21 08:28:53;;;;;;;3.13;2.93;;;19.30;99.90;;;;;;5045760;28;20439;-58
2021/05/21 08:31:20;;;;;;;3.17;2.97;;;18.90;99.90;;;;;;5050297;28;20193;-57
2021/05/21 08:33:46;;;;;;;3.00;2.80;;;18.80;99.90;;;;;;5048863;28;20424;-57
2021/05/21 08:36:12;;;;;;;3.30;3.10;;;18.80;99.90;;;;;;5050058;28;20760;-56
2021/05/21 08:38:41;;;;;;;3.10;3.00;;;18.70;99.90;;;;;;5048848;28;20427;-57
2021/05/21 08:41:11;;;;;;;4.53;3.20;;;18.80;99.90;;;;;;5048712;28;20424;-58
2021/05/21 08:43:41;;;;;;;2.70;2.60;;;18.70;99.90;;;;;;5048702;28;20472;-58
2021/05/21 08:46:09;;;;;;;2.90;2.80;;;18.60;99.90;;;;;;5052114;28;20913;-57
2021/05/21 08:48:34;;;;;;;3.07;2.87;;;18.70;99.90;;;;;;5055788;28;20666;-51
2021/05/21 08:51:00;;;;;;;2.60;2.50;;;18.30;99.90;;;;;;5037409;28;20519;-59
2021/05/21 08:53:25;;;;;;;3.33;3.03;;;18.40;99.90;;;;;;5049502;28;20205;-58
2021/05/21 08:55:51;;;;;;;2.77;2.57;;;18.40;99.90;;;;;;5049368;28;20222;-58
2021/05/21 08:58:17;;;;;;;2.90;2.70;;;18.40;99.90;;;;;;5049405;28;20710;-58
2021/05/21 09:00:43;;;;;;;3.50;3.30;;;18.80;99.90;;;;;;5047445;28;20444;-58
2021/05/21 09:03:23;;;;;;;3.40;3.20;;;19.00;99.90;;;;;;5049385;28;20247;-59
2021/05/21 09:06:19;;;;;;;3.00;2.80;;;18.90;99.90;;;;;;5048698;28;21199;-56
2021/05/21 09:08:49;;;;;;;2.80;2.60;;;18.70;99.90;;;;;;5035753;28;20417;-58
2021/05/21 09:11:31;;;;;;;3.00;2.80;;;18.90;99.90;;;;;;5049366;28;20420;-58
2021/05/21 09:14:23;;;;;;;2.80;2.60;;;18.80;99.90;;;;;;5048660;28;20444;-58
2021/05/21 09:16:49;;;;;;;2.97;2.77;;;18.70;99.90;;;;;;5049174;28;20475;-59
2021/05/21 09:19:23;;;;;;;2.80;2.70;;;18.70;99.90;;;;;;5047467;28;20432;-59
2021/05/21 09:21:57;;;;;;;3.03;2.83;;;18.80;99.90;;;;;;5049152;28;20423;-58
2021/05/21 09:24:32;;;;;;;2.80;2.60;;;19.10;99.90;;;;;;5049228;28;20422;-59
2021/05/21 09:26:58;;;;;;;2.90;2.80;;;19.20;99.90;;;;;;5047512;28;20442;-58
2021/05/21 09:29:36;;;;;;;2.83;2.63;;;19.30;99.90;;;;;;5046065;28;20420;-59
2021/05/21 09:32:20;;;;;;;2.40;2.30;;;19.50;99.90;;;;;;5054317;28;20417;-59
2021/05/21 09:34:57;;;;;;;2.97;2.77;;;19.70;99.90;;;;;;5049096;28;20538;-57
2021/05/21 09:37:24;;;;;;;2.40;2.30;;;19.90;99.90;;;;;;5047799;28;20436;-58
2021/05/21 09:40:19;;;;;;;2.40;2.30;;;20.10;99.90;;;;;;5048877;28;20498;-58
2021/05/21 09:42:49;;;;;;;2.47;2.37;;;20.30;99.90;;;;;;5046749;28;20476;-58
2021/05/21 09:45:21;;;;;;;2.70;2.60;;;20.30;99.90;;;;;;5048732;28;20458;-58
2021/05/21 09:47:49;;;;;;;2.70;2.50;;;20.50;99.90;;;;;;5056725;28;21128;-58
2021/05/21 09:50:15;;;;;;;3.30;3.20;;;20.40;99.90;;;;;;5045302;28;20536;-58
2021/05/21 09:52:45;;;;;;;2.77;2.53;;;20.20;99.90;;;;;;5048556;28;20440;-59
2021/05/21 09:55:11;;;;;;;2.80;2.60;;;20.20;99.90;;;;;;5047615;28;20293;-58
2021/05/21 09:57:36;;;;;;;3.10;2.90;;;20.20;99.90;;;;;;5048780;28;20502;-59
2021/05/21 10:00:11;;;;;;;3.77;3.00;;;20.20;99.90;;;;;;5047855;28;20208;-58
2021/05/21 10:02:38;;;;;;;2.30;2.20;;;20.10;99.90;;;;;;5048369;28;20183;-59
2021/05/21 10:05:06;;;;;;;3.23;2.93;;;20.10;99.90;;;;;;5048007;28;20417;-59
2021/05/21 10:07:32;;;;;;;3.40;3.20;;;20.20;99.90;;;;;;5047974;28;20432;-58
2021/05/21 10:09:57;;;;;;;3.17;2.77;;;20.30;99.90;;;;;;5048210;28;20434;-58
2021/05/21 10:12:24;;;;;;;4.07;2.70;;;20.30;99.90;;;;;;5047775;28;20178;-58
2021/05/21 10:14:51;;;;;;;2.80;2.60;;;20.20;99.90;;;;;;5048162;28;20571;-58
2021/05/21 10:17:23;;;;;;;2.80;2.60;;;20.30;99.90;;;;;;5047229;28;20955;-58
2021/05/21 10:19:53;;;;;;;2.73;2.63;;;20.40;99.90;;;;;;5048502;28;20430;-59
2021/05/21 10:22:32;;;;;;;3.00;2.80;;;20.20;99.90;;;;;;5047406;28;20455;-58
2021/05/21 10:25:19;;;;;;;3.40;2.70;;;20.40;99.90;;;;;;5047984;28;20443;-59
2021/05/21 10:27:49;;;;;;;5.27;2.90;;;20.50;99.90;;;;;;5047674;28;20446;-59
2021/05/21 10:30:19;;;;;;;2.77;2.53;;;20.30;99.90;;;;;;5046882;28;20431;-59
2021/05/21 10:32:45;;;;;;;3.10;2.90;;;20.60;99.90;;;;;;5048018;28;20416;-61
2021/05/21 10:35:21;;;;;;;3.07;2.87;;;20.80;99.90;;;;;;5047970;28;20459;-60
2021/05/21 10:37:47;;;;;;;2.50;2.40;;;21.00;99.90;;;;;;5045215;28;20710;-59
2021/05/21 10:40:33;;;;;;;2.73;2.53;;;21.10;99.90;;;;;;5047312;28;20810;-59
2021/05/21 10:42:59;;;;;;;2.60;2.50;;;21.40;99.90;;;;;;5046398;28;20434;-59
2021/05/21 10:45:26;;;;;;;2.90;2.70;;;21.20;99.90;;;;;;5045377;28;20476;-62
2021/05/21 10:48:07;;;;;;;2.90;2.70;;;21.20;99.90;;;;;;5050553;28;20537;-57
2021/05/21 10:50:39;;;;;;;3.00;2.70;;;21.20;99.90;;;;;;5045963;28;20419;-60
2021/05/21 10:53:06;;;;;;;2.60;2.50;;;21.20;99.90;;;;;;5046744;28;20495;-59
2021/05/21 10:55:44;;;;;;;2.77;2.67;;;21.50;99.90;;;;;;5042901;28;20457;-57
2021/05/21 10:58:27;;;;;;;2.40;2.30;;;22.00;99.90;;;;;;5036032;28;21367;-60
2021/05/21 11:01:15;;;;;;;2.90;2.70;;;22.10;99.90;;;;;;5043394;28;20416;-57
2021/05/21 11:03:56;;;;;;;2.70;2.50;;;22.30;99.90;;;;;;5044695;28;20416;-62
2021/05/21 11:06:22;;;;;;;3.00;2.80;;;22.30;99.90;;;;;;5044360;28;20420;-62
2021/05/21 11:08:48;;;;;;;2.70;2.50;;;22.10;99.90;;;;;;5045988;28;21101;-59
2021/05/21 11:11:15;;;;;;;2.70;2.60;;;21.80;99.90;;;;;;5045823;28;20420;-62
2021/05/21 11:13:41;;;;;;;3.00;2.73;;;21.70;99.90;;;;;;5046021;28;20201;-59
2021/05/21 11:16:12;;;;;;;3.30;2.90;;;21.30;99.90;;;;;;5045235;28;20868;-61
2021/05/21 11:18:47;;;;;;;2.80;2.70;;;21.20;99.90;;;;;;5045522;28;20428;-61
2021/05/21 11:21:18;;;;;;;4.33;2.53;;;21.00;99.90;;;;;;5041792;28;20438;-61
2021/05/21 11:23:46;;;;;;;2.70;2.60;;;20.90;99.90;;;;;;5046969;28;20412;-59
2021/05/21 11:26:13;;;;;;;3.17;2.97;;;20.70;99.90;;;;;;5047278;28;20423;-61
2021/05/21 11:28:56;;;;;;;3.00;2.80;;;20.90;99.90;;;;;;5049763;28;20962;-58
2021/05/21 11:31:29;;;;;;;2.93;2.80;;;20.70;99.90;;;;;;5050642;28;20999;-59
2021/05/21 11:33:59;;;;;;;2.53;2.43;;;20.80;99.90;;;;;;5048193;28;20796;-60
2021/05/21 11:36:26;;;;;;;2.60;2.40;;;20.90;99.90;;;;;;5050909;28;20546;-59
2021/05/21 11:38:53;;;;;;;2.67;2.50;;;20.50;99.90;;;;;;5050605;28;20907;-58
2021/05/21 11:41:28;;;;;;;3.47;3.00;;;20.10;99.90;;;;;;5050244;28;20520;-59
2021/05/21 11:43:54;;;;;;;3.13;2.93;;;20.30;99.90;;;;;;5048758;28;20464;-59
2021/05/21 11:46:20;;;;;;;2.80;2.70;;;20.40;99.90;;;;;;5052999;28;20416;-54
2021/05/21 11:48:48;;;;;;;3.57;2.93;;;20.50;99.90;;;;;;5048374;28;20587;-59
2021/05/21 11:51:22;;;;;;;3.00;2.80;;;20.30;99.90;;;;;;5047195;28;20420;-57
2021/05/21 11:53:49;;;;;;;2.33;2.23;;;20.20;99.90;;;;;;5050224;28;20918;-61
2021/05/21 11:56:33;;;;;;;2.67;2.57;;;20.30;99.90;;;;;;5050191;28;20490;-61
2021/05/21 11:58:59;;;;;;;3.57;2.30;;;20.40;99.90;;;;;;5050113;28;20419;-57
2021/05/21 12:01:25;;;;;;;2.57;2.47;;;20.20;99.90;;;;;;5050304;28;20916;-60
2021/05/21 12:03:51;;;;;;;2.40;2.20;;;20.20;99.90;;;;;;5049275;28;20427;-59
2021/05/21 12:06:17;;;;;;;2.80;2.70;;;20.10;99.90;;;;;;5050056;28;20777;-59
2021/05/21 12:08:47;;;;;;;2.60;2.40;;;20.30;99.90;;;;;;5049182;28;20220;-60
2021/05/21 12:11:16;;;;;;;2.50;2.40;;;20.30;99.90;;;;;;5050352;28;20654;-63
2021/05/21 12:13:43;;;;;;;2.63;2.50;;;20.20;99.90;;;;;;5049826;28;20439;-61
2021/05/21 12:16:08;;;;;;;3.87;2.70;;;20.20;99.90;;;;;;5050304;28;20494;-62
2021/05/21 12:18:34;;;;;;;2.53;2.33;;;20.40;99.90;;;;;;5049966;28;20465;-61
2021/05/21 12:21:00;;;;;;;2.90;2.70;;;20.40;99.90;;;;;;5050220;28;20598;-61
2021/05/21 12:23:37;;;;;;;2.47;2.37;;;20.20;99.90;;;;;;5049835;28;20458;-61
2021/05/21 12:26:03;;;;;;;2.70;2.60;;;20.40;99.90;;;;;;5050072;28;20180;-58
2021/05/21 12:28:31;;;;;;;2.77;2.57;;;20.50;99.90;;;;;;5049799;28;20996;-60
2021/05/21 12:31:03;;;;;;;3.10;2.80;;;20.50;99.90;;;;;;5049424;28;20184;-59
2021/05/21 12:33:34;;;;;;;2.80;2.60;;;20.60;99.90;;;;;;5049216;28;20439;-60
2021/05/21 12:36:14;;;;;;;2.70;2.60;;;20.60;99.90;;;;;;5049703;28;21068;-61
2021/05/21 12:38:48;;;;;;;2.30;2.20;;;20.70;99.90;;;;;;5048493;28;20446;-60
2021/05/21 12:41:15;;;;;;;2.47;2.37;;;20.70;99.90;;;;;;5049545;28;20543;-59
2021/05/21 12:43:41;;;;;;;2.40;2.20;;;20.80;99.90;;;;;;5049569;28;20548;-60
2021/05/21 12:46:07;;;;;;;2.83;2.67;;;20.60;99.90;;;;;;5061467;28;20533;-60
2021/05/21 12:48:38;;;;;;;2.20;2.10;;;20.60;99.90;;;;;;5051091;28;20174;-60
2021/05/21 12:51:25;;;;;;;2.60;2.40;;;20.60;99.90;;;;;;5042437;28;20438;-60
2021/05/21 12:53:51;;;;;;;4.40;2.30;;;20.60;99.90;;;;;;5048196;28;20423;-59
2021/05/21 12:56:33;;;;;;;2.70;2.50;;;20.30;99.90;;;;;;5049841;28;20509;-60
2021/05/21 12:59:04;;;;;;;3.03;2.77;;;20.30;99.90;;;;;;5042151;28;20524;-60